Time;durP1;ratioP1;P1;durP2;ratioP2;P2;SDS_P1;SDS_P2;PMS_P1;PMS_P2;Temp;Humidity;BMP_temperature;BMP_pressure;BME280_temperature;BME280_humidity;BME280_pressure;Samples;Min_cycle;Max_cycle;Signal;HPM_P1;HPM_P2
2022/10/29 00:01:42;;;;;;;12.73;3.08;;;13.70;99.90;;;;;;5104789;28;20028;-70
2022/10/29 00:04:07;;;;;;;21.00;3.63;;;13.70;99.90;;;;;;5101718;28;20511;-70
2022/10/29 00:06:33;;;;;;;11.82;2.70;;;13.70;99.90;;;;;;5106785;28;20232;-70
2022/10/29 00:08:58;;;;;;;24.23;4.55;;;13.70;99.90;;;;;;5104660;28;20066;-71
2022/10/29 00:11:24;;;;;;;14.05;2.70;;;13.70;99.90;;;;;;5102299;28;20764;-71
2022/10/29 00:13:54;;;;;;;15.32;3.50;;;13.70;99.90;;;;;;5103605;28;20046;-70
2022/10/29 00:16:22;;;;;;;14.68;2.92;;;13.60;99.90;;;;;;5104189;28;20075;-69
2022/10/29 00:18:48;;;;;;;15.27;2.95;;;13.60;99.90;;;;;;5103800;27;20085;-70
2022/10/29 00:21:19;;;;;;;10.38;2.80;;;13.60;99.90;;;;;;5103738;28;20429;-69
2022/10/29 00:23:45;;;;;;;20.60;4.10;;;13.60;99.90;;;;;;5103427;27;20100;-70
2022/10/29 00:26:11;;;;;;;15.15;3.05;;;13.60;99.90;;;;;;5103154;28;20023;-72
2022/10/29 00:28:37;;;;;;;17.73;3.10;;;13.60;99.90;;;;;;5103065;28;20112;-70
2022/10/29 00:31:17;;;;;;;12.70;2.90;;;13.60;99.90;;;;;;5104053;27;20077;-71
2022/10/29 00:33:44;;;;;;;12.10;3.00;;;13.50;99.90;;;;;;5082904;28;20028;-73
2022/10/29 00:36:15;;;;;;;8.98;2.80;;;13.50;99.90;;;;;;5082438;28;20436;-71
2022/10/29 00:38:41;;;;;;;13.27;3.03;;;13.50;99.90;;;;;;5084216;28;20036;-71
2022/10/29 00:41:09;;;;;;;20.23;4.03;;;13.50;99.90;;;;;;5082184;28;20173;-71
2022/10/29 00:43:37;;;;;;;15.07;3.00;;;13.50;99.90;;;;;;5082882;28;20071;-72
2022/10/29 00:46:12;;;;;;;16.08;3.40;;;13.40;99.90;;;;;;5083884;28;20047;-70
2022/10/29 00:48:59;;;;;;;11.45;3.63;;;13.40;99.90;;;;;;5080516;28;20537;-71
2022/10/29 00:51:26;;;;;;;12.82;3.72;;;13.40;99.90;;;;;;5082924;28;20809;-71
2022/10/29 00:54:05;;;;;;;14.10;3.22;;;13.40;99.90;;;;;;5081345;28;20177;-70
2022/10/29 00:56:35;;;;;;;15.02;3.95;;;13.40;99.90;;;;;;5079497;28;20101;-71
2022/10/29 00:59:01;;;;;;;17.05;3.47;;;13.40;99.90;;;;;;5080185;28;20104;-70
2022/10/29 01:01:27;;;;;;;11.32;3.13;;;13.30;99.90;;;;;;5086703;28;20109;-70
2022/10/29 01:03:54;;;;;;;10.98;2.67;;;13.20;99.90;;;;;;5085946;28;20131;-70
2022/10/29 01:06:22;;;;;;;9.02;3.13;;;13.20;99.90;;;;;;5086477;28;20473;-70
2022/10/29 01:08:47;;;;;;;10.98;3.88;;;13.20;99.90;;;;;;5082949;28;20055;-70
2022/10/29 01:11:31;;;;;;;14.07;2.90;;;13.20;99.90;;;;;;5086811;28;20484;-70
2022/10/29 01:14:48;;;;;;;10.75;2.47;;;13.10;99.90;;;;;;5084808;28;20028;-70
2022/10/29 01:17:26;;;;;;;11.35;2.50;;;13.00;99.90;;;;;;5083053;28;20484;-70
2022/10/29 01:20:16;;;;;;;10.82;3.08;;;13.00;99.90;;;;;;5102440;27;20068;-70
2022/10/29 01:22:51;;;;;;;12.85;3.28;;;13.00;99.90;;;;;;5104924;28;20438;-69
2022/10/29 01:25:35;;;;;;;14.68;4.15;;;13.00;99.90;;;;;;5103391;28;20035;-70
2022/10/29 01:28:19;;;;;;;13.88;3.67;;;13.00;99.90;;;;;;5082967;28;20434;-70
2022/10/29 01:31:12;;;;;;;16.45;4.28;;;13.00;99.90;;;;;;5105316;27;20040;-70
2022/10/29 01:33:47;;;;;;;11.82;3.75;;;13.10;99.90;;;;;;5095430;27;20112;-70
2022/10/29 01:36:28;;;;;;;11.95;3.35;;;13.10;99.90;;;;;;5084311;28;20480;-71
2022/10/29 01:39:02;;;;;;;13.95;3.53;;;13.10;99.90;;;;;;5085067;28;20040;-70
2022/10/29 01:41:45;;;;;;;15.75;3.75;;;13.10;99.90;;;;;;5082263;28;20894;-70
2022/10/29 01:44:11;;;;;;;12.07;3.92;;;13.10;99.90;;;;;;5082845;28;20046;-71
2022/10/29 01:46:45;;;;;;;13.80;3.47;;;13.00;99.90;;;;;;5086590;28;20118;-70
2022/10/29 01:49:17;;;;;;;13.63;4.10;;;13.10;99.90;;;;;;5085934;28;20032;-71
2022/10/29 01:51:45;;;;;;;20.42;4.82;;;13.10;99.90;;;;;;5085150;28;20496;-70
2022/10/29 01:54:10;;;;;;;20.23;4.90;;;13.10;99.90;;;;;;5085061;28;20086;-71
2022/10/29 01:56:37;;;;;;;17.00;4.88;;;13.20;99.90;;;;;;5086372;28;20513;-71
2022/10/29 01:59:09;;;;;;;17.75;5.30;;;13.20;99.90;;;;;;5084199;28;20515;-71
2022/10/29 02:01:49;;;;;;;29.90;5.07;;;13.20;99.90;;;;;;5084642;28;20043;-71
2022/10/29 02:04:50;;;;;;;23.17;5.65;;;13.30;99.90;;;;;;5083254;28;20039;-71
2022/10/29 02:07:45;;;;;;;18.42;5.43;;;13.30;99.90;;;;;;4989715;28;20561;-70
2022/10/29 02:10:20;;;;;;;20.42;5.60;;;13.30;99.90;;;;;;5082107;28;20123;-70
2022/10/29 02:12:48;;;;;;;17.05;4.10;;;13.20;99.90;;;;;;5085600;28;20036;-71
2022/10/29 02:15:28;;;;;;;12.68;4.15;;;13.20;99.90;;;;;;5085103;28;20066;-70
2022/10/29 02:18:01;;;;;;;16.00;4.35;;;13.20;99.90;;;;;;5085622;28;20392;-70
2022/10/29 02:20:26;;;;;;;18.83;4.07;;;13.10;99.90;;;;;;5081354;28;20442;-69
2022/10/29 02:22:52;;;;;;;17.08;4.57;;;13.10;99.90;;;;;;5085162;28;20052;-70
2022/10/29 02:25:17;;;;;;;16.95;5.20;;;13.10;99.90;;;;;;5087072;28;20032;-71
2022/10/29 02:27:43;;;;;;;10.30;4.05;;;13.00;99.90;;;;;;5087253;28;20020;-71
2022/10/29 02:30:09;;;;;;;14.48;4.50;;;13.00;99.90;;;;;;5084898;28;20031;-69
2022/10/29 02:32:35;;;;;;;12.73;4.47;;;13.00;99.90;;;;;;5085311;28;20028;-71
2022/10/29 02:35:01;;;;;;;13.10;3.97;;;13.00;99.90;;;;;;5084972;28;20510;-71
2022/10/29 02:37:27;;;;;;;19.17;4.22;;;12.90;99.90;;;;;;5085597;28;20034;-71
2022/10/29 02:39:52;;;;;;;14.65;5.50;;;12.90;99.90;;;;;;5085092;28;20644;-71
2022/10/29 02:42:18;;;;;;;17.50;4.45;;;12.90;99.90;;;;;;5084889;28;20047;-70
2022/10/29 02:44:43;;;;;;;22.85;5.15;;;12.90;99.90;;;;;;5080447;28;20530;-72
2022/10/29 02:47:09;;;;;;;12.20;3.78;;;12.90;99.90;;;;;;5084717;28;20035;-71
2022/10/29 02:49:34;;;;;;;11.82;4.55;;;12.90;99.90;;;;;;5092328;28;20039;-72
2022/10/29 02:52:00;;;;;;;14.27;4.80;;;12.90;99.90;;;;;;5084836;28;20071;-71
2022/10/29 02:54:25;;;;;;;17.52;5.10;;;12.90;99.90;;;;;;5083075;28;20492;-70
2022/10/29 02:56:51;;;;;;;19.77;4.05;;;12.90;99.90;;;;;;5085008;28;20403;-71
2022/10/29 02:59:17;;;;;;;24.35;5.15;;;12.90;99.90;;;;;;5085034;28;20055;-70
2022/10/29 03:01:42;;;;;;;13.85;4.07;;;12.90;99.90;;;;;;5085159;28;20039;-71
2022/10/29 03:04:10;;;;;;;10.23;3.50;;;12.90;99.90;;;;;;5082917;28;20066;-71
2022/10/29 03:06:36;;;;;;;13.45;3.80;;;12.90;99.90;;;;;;5086505;28;20068;-70
2022/10/29 03:09:02;;;;;;;11.98;3.63;;;12.90;99.90;;;;;;5084601;28;20134;-71
2022/10/29 03:11:27;;;;;;;13.25;4.35;;;12.90;99.90;;;;;;5084745;28;20043;-69
2022/10/29 03:13:53;;;;;;;14.43;4.38;;;12.90;99.90;;;;;;5084103;28;20044;-70
2022/10/29 03:16:18;;;;;;;21.50;4.68;;;12.90;99.90;;;;;;5082931;28;20040;-71
2022/10/29 03:18:44;;;;;;;12.98;5.13;;;12.90;99.90;;;;;;5084378;28;20063;-71
2022/10/29 03:21:09;;;;;;;17.10;4.45;;;12.90;99.90;;;;;;5082010;28;20050;-70
2022/10/29 03:23:35;;;;;;;14.18;4.22;;;12.90;99.90;;;;;;5084426;28;20054;-70
2022/10/29 03:26:01;;;;;;;16.55;4.40;;;12.90;99.90;;;;;;5084843;28;20028;-72
2022/10/29 03:28:27;;;;;;;10.02;3.92;;;12.90;99.90;;;;;;5084151;28;20028;-69
2022/10/29 03:30:53;;;;;;;12.90;4.65;;;12.90;99.90;;;;;;5084399;28;20079;-69
2022/10/29 03:33:18;;;;;;;12.60;4.60;;;12.90;99.90;;;;;;5082052;28;20036;-69
2022/10/29 03:35:44;;;;;;;15.82;4.97;;;12.90;99.90;;;;;;5090610;28;20040;-70
2022/10/29 03:38:09;;;;;;;7.97;3.50;;;13.00;99.90;;;;;;5084136;28;20089;-70
2022/10/29 03:40:35;;;;;;;11.43;4.40;;;12.90;99.90;;;;;;5091369;28;20040;-70
2022/10/29 03:43:01;;;;;;;14.75;4.55;;;12.90;99.90;;;;;;5083435;28;20032;-71
2022/10/29 03:45:26;;;;;;;18.13;4.82;;;13.00;99.90;;;;;;5084016;28;20115;-71
2022/10/29 03:47:52;;;;;;;10.70;4.45;;;12.90;99.90;;;;;;5084642;28;20033;-72
2022/10/29 03:50:17;;;;;;;9.45;4.25;;;12.90;99.90;;;;;;5083831;28;20082;-70
2022/10/29 03:52:43;;;;;;;9.40;4.55;;;12.90;99.90;;;;;;5084449;28;20039;-70
2022/10/29 03:55:08;;;;;;;10.80;4.10;;;12.90;99.90;;;;;;5082931;28;20028;-70
2022/10/29 03:57:34;;;;;;;9.15;4.13;;;12.90;99.90;;;;;;5084798;28;20039;-72
2022/10/29 04:00:00;;;;;;;8.52;4.43;;;12.90;99.90;;;;;;5083911;28;20122;-71
2022/10/29 04:02:26;;;;;;;10.07;3.78;;;12.90;99.90;;;;;;5083661;28;20520;-72
2022/10/29 04:04:51;;;;;;;12.52;4.20;;;12.90;99.90;;;;;;5081957;28;20075;-71
2022/10/29 04:07:17;;;;;;;11.60;4.78;;;12.90;99.90;;;;;;5084821;28;20024;-72
2022/10/29 04:09:42;;;;;;;9.77;4.38;;;12.90;99.90;;;;;;5082682;28;20051;-71
2022/10/29 04:12:08;;;;;;;6.03;3.50;;;13.00;99.90;;;;;;5083360;28;20062;-71
2022/10/29 04:14:34;;;;;;;11.27;4.80;;;13.00;99.90;;;;;;5082409;28;20020;-71
2022/10/29 04:16:59;;;;;;;13.25;5.10;;;13.00;99.90;;;;;;5083635;28;20161;-71
2022/10/29 04:19:25;;;;;;;9.00;3.97;;;13.00;99.90;;;;;;5083561;28;20041;-71
2022/10/29 04:21:51;;;;;;;14.82;4.40;;;13.10;99.90;;;;;;5082516;28;20056;-70
2022/10/29 04:24:16;;;;;;;8.85;4.15;;;13.10;99.90;;;;;;5082333;28;20821;-69
2022/10/29 04:26:43;;;;;;;12.32;4.35;;;13.10;99.90;;;;;;5085537;28;20495;-70
2022/10/29 04:29:09;;;;;;;10.02;4.60;;;13.10;99.90;;;;;;5083257;28;20044;-71
2022/10/29 04:31:35;;;;;;;17.10;5.05;;;13.20;99.90;;;;;;5084604;28;20117;-70
2022/10/29 04:34:01;;;;;;;12.88;4.47;;;13.20;99.90;;;;;;5086745;28;20044;-70
2022/10/29 04:36:26;;;;;;;11.18;4.70;;;13.20;99.90;;;;;;5087515;28;20536;-69
2022/10/29 04:38:52;;;;;;;11.95;3.97;;;13.20;99.90;;;;;;5087843;28;20122;-70
2022/10/29 04:41:18;;;;;;;11.98;4.50;;;13.20;99.90;;;;;;5086959;28;20403;-70
2022/10/29 04:43:43;;;;;;;7.82;4.40;;;13.20;99.90;;;;;;5085477;28;20394;-70
2022/10/29 04:46:09;;;;;;;11.60;4.30;;;13.20;99.90;;;;;;5086649;28;20036;-70
2022/10/29 04:48:35;;;;;;;12.82;3.75;;;13.20;99.90;;;;;;5086349;28;20070;-70
2022/10/29 04:51:01;;;;;;;16.15;5.10;;;13.30;99.90;;;;;;5087074;28;20067;-71
2022/10/29 04:53:26;;;;;;;8.95;4.03;;;13.30;99.90;;;;;;5084722;28;20036;-71
2022/10/29 04:55:59;;;;;;;9.07;4.68;;;13.20;99.90;;;;;;5087066;28;20748;-71
2022/10/29 04:58:24;;;;;;;12.60;4.28;;;13.20;99.90;;;;;;5085829;28;20051;-69
2022/10/29 05:00:50;;;;;;;7.15;3.65;;;13.20;99.90;;;;;;5092703;28;20031;-71
2022/10/29 05:03:15;;;;;;;12.38;4.30;;;13.20;99.90;;;;;;5083492;28;20040;-71
2022/10/29 05:05:41;;;;;;;11.25;3.88;;;13.20;99.90;;;;;;5086985;28;20551;-71
2022/10/29 05:08:09;;;;;;;7.35;3.97;;;13.20;99.90;;;;;;5086316;28;20472;-70
2022/10/29 05:10:36;;;;;;;14.93;4.63;;;13.20;99.90;;;;;;5085448;28;20478;-70
2022/10/29 05:13:06;;;;;;;13.57;4.03;;;13.20;99.90;;;;;;5086794;28;20405;-70
2022/10/29 05:15:31;;;;;;;7.95;3.75;;;13.20;99.90;;;;;;5086536;28;20078;-69
2022/10/29 05:17:57;;;;;;;20.85;4.38;;;13.10;99.90;;;;;;5090812;28;20044;-69
2022/10/29 05:20:23;;;;;;;12.73;3.92;;;13.10;99.90;;;;;;5086852;28;20139;-70
2022/10/29 05:22:49;;;;;;;9.38;3.95;;;13.10;99.90;;;;;;5086349;28;20036;-71
2022/10/29 05:25:15;;;;;;;13.27;4.80;;;13.10;99.90;;;;;;5086022;28;20148;-70
2022/10/29 05:27:41;;;;;;;12.57;4.00;;;13.10;99.90;;;;;;5082951;28;20042;-71
2022/10/29 05:30:07;;;;;;;9.85;3.90;;;13.10;99.90;;;;;;5086256;28;20032;-70
2022/10/29 05:32:33;;;;;;;9.52;3.83;;;13.20;99.90;;;;;;5086236;28;20052;-70
2022/10/29 05:34:58;;;;;;;11.57;4.18;;;13.20;99.90;;;;;;5093245;28;20055;-71
2022/10/29 05:37:26;;;;;;;8.30;4.22;;;13.30;99.90;;;;;;5086746;28;20028;-70
2022/10/29 05:39:52;;;;;;;9.20;3.50;;;13.30;99.90;;;;;;5086514;28;20035;-71
2022/10/29 05:42:18;;;;;;;10.02;3.67;;;13.30;99.90;;;;;;5088946;27;20027;-71
2022/10/29 05:44:43;;;;;;;9.68;3.88;;;13.30;99.90;;;;;;5085491;28;20036;-70
2022/10/29 05:47:09;;;;;;;9.38;3.88;;;13.30;99.90;;;;;;5085970;28;20035;-71
2022/10/29 05:49:35;;;;;;;9.80;3.88;;;13.30;99.90;;;;;;5086541;28;20567;-70
2022/10/29 05:52:00;;;;;;;9.70;3.35;;;13.40;99.90;;;;;;5084662;28;20032;-70
2022/10/29 05:54:26;;;;;;;8.85;4.03;;;13.30;99.90;;;;;;5085485;28;20047;-70
2022/10/29 05:56:51;;;;;;;16.35;3.47;;;13.40;99.90;;;;;;5084469;28;20056;-70
2022/10/29 05:59:17;;;;;;;11.13;3.40;;;13.40;99.90;;;;;;5085929;28;20043;-70
2022/10/29 06:01:42;;;;;;;10.57;3.72;;;13.40;99.90;;;;;;5086776;28;20036;-70
2022/10/29 06:04:08;;;;;;;13.60;3.67;;;13.40;99.90;;;;;;5084994;28;20042;-70
2022/10/29 06:06:34;;;;;;;9.88;3.42;;;13.40;99.90;;;;;;5086257;28;20142;-70
2022/10/29 06:08:59;;;;;;;10.13;3.67;;;13.40;99.90;;;;;;5085784;28;20144;-69
2022/10/29 06:11:25;;;;;;;12.18;4.10;;;13.40;99.90;;;;;;5085374;28;20060;-69
2022/10/29 06:13:54;;;;;;;7.47;3.45;;;13.40;99.90;;;;;;5085010;28;20108;-71
2022/10/29 06:16:20;;;;;;;13.45;3.72;;;13.40;99.90;;;;;;5087433;28;20081;-70
2022/10/29 06:18:46;;;;;;;14.35;3.50;;;13.40;99.90;;;;;;5084292;28;20032;-70
2022/10/29 06:21:11;;;;;;;9.35;3.83;;;13.40;99.90;;;;;;5092212;28;20043;-70
2022/10/29 06:23:37;;;;;;;9.90;4.50;;;13.50;99.90;;;;;;5083630;28;20089;-70
2022/10/29 06:26:03;;;;;;;11.13;4.50;;;13.50;99.90;;;;;;5086499;28;20044;-70
2022/10/29 06:28:29;;;;;;;11.02;4.68;;;13.50;99.90;;;;;;5085559;28;20036;-70
2022/10/29 06:30:54;;;;;;;10.65;4.82;;;13.50;99.90;;;;;;5083699;28;20059;-70
2022/10/29 06:33:20;;;;;;;11.02;4.63;;;13.60;99.90;;;;;;5085225;28;20032;-70
2022/10/29 06:35:46;;;;;;;13.48;4.50;;;13.60;99.90;;;;;;5084949;28;20119;-71
2022/10/29 06:38:13;;;;;;;12.10;5.93;;;13.60;99.90;;;;;;5083624;28;20408;-70
2022/10/29 06:40:39;;;;;;;13.15;5.50;;;13.60;99.90;;;;;;5083752;28;20032;-70
2022/10/29 06:43:07;;;;;;;10.18;4.55;;;13.60;99.90;;;;;;5083104;28;20055;-70
2022/10/29 06:45:33;;;;;;;11.00;4.30;;;13.70;99.90;;;;;;5083157;28;20028;-70
2022/10/29 06:48:00;;;;;;;15.88;4.18;;;13.70;99.90;;;;;;5082102;28;20033;-70
2022/10/29 06:50:26;;;;;;;10.13;4.68;;;13.70;99.90;;;;;;5083668;28;20032;-70
2022/10/29 06:52:59;;;;;;;12.98;4.82;;;13.70;99.90;;;;;;5091745;28;20043;-68
2022/10/29 06:55:26;;;;;;;11.02;4.57;;;13.80;99.90;;;;;;5084349;28;20036;-71
2022/10/29 06:57:57;;;;;;;10.30;4.50;;;13.80;99.90;;;;;;5084912;28;20071;-71
2022/10/29 07:00:23;;;;;;;14.05;4.70;;;13.80;99.90;;;;;;5078656;28;20044;-71
2022/10/29 07:02:48;;;;;;;13.98;4.70;;;13.80;99.90;;;;;;5083437;28;20043;-71
2022/10/29 07:05:14;;;;;;;12.27;6.03;;;13.80;99.90;;;;;;5083452;28;20024;-69
2022/10/29 07:07:39;;;;;;;13.02;4.90;;;13.90;99.90;;;;;;5083824;28;20040;-70
2022/10/29 07:10:05;;;;;;;9.82;4.07;;;13.90;99.90;;;;;;5083793;28;20032;-70
2022/10/29 07:12:31;;;;;;;10.45;4.57;;;13.90;99.90;;;;;;5082595;28;20071;-70
2022/10/29 07:14:56;;;;;;;15.10;4.55;;;13.90;99.90;;;;;;5082242;28;20043;-71
2022/10/29 07:17:22;;;;;;;17.00;5.35;;;13.90;99.90;;;;;;5084530;28;20554;-69
2022/10/29 07:19:47;;;;;;;11.90;4.60;;;14.00;99.90;;;;;;5076021;28;20035;-70
2022/10/29 07:22:13;;;;;;;11.63;4.28;;;14.00;99.90;;;;;;5079782;28;20035;-70
2022/10/29 07:24:38;;;;;;;13.30;4.50;;;14.10;99.90;;;;;;5076917;28;20040;-70
2022/10/29 07:27:06;;;;;;;10.23;3.92;;;14.10;99.90;;;;;;5081830;28;20076;-69
2022/10/29 07:29:32;;;;;;;18.10;4.28;;;14.10;99.90;;;;;;5077117;28;20060;-71
2022/10/29 07:31:57;;;;;;;16.63;4.60;;;14.20;99.90;;;;;;5079527;28;20044;-70
2022/10/29 07:34:23;;;;;;;14.63;5.57;;;14.30;99.90;;;;;;5081767;28;20024;-71
2022/10/29 07:36:48;;;;;;;22.30;6.10;;;14.30;99.90;;;;;;5081273;28;20526;-69
2022/10/29 07:39:14;;;;;;;11.88;4.80;;;14.30;99.90;;;;;;5081796;28;20039;-70
2022/10/29 07:41:39;;;;;;;14.68;6.18;;;14.40;99.90;;;;;;5083058;28;20039;-69
2022/10/29 07:44:05;;;;;;;11.82;5.28;;;14.50;99.90;;;;;;5081938;28;21595;-68
2022/10/29 07:46:30;;;;;;;15.35;5.97;;;14.50;99.90;;;;;;5083006;28;20040;-71
2022/10/29 07:48:56;;;;;;;14.23;5.43;;;14.60;99.90;;;;;;5083289;28;20036;-69
2022/10/29 07:51:22;;;;;;;21.40;6.05;;;14.60;99.90;;;;;;5082957;28;20066;-69
2022/10/29 07:53:47;;;;;;;13.60;6.03;;;14.70;99.90;;;;;;5082370;28;20681;-71
2022/10/29 07:56:13;;;;;;;19.25;6.25;;;14.80;99.90;;;;;;5082962;28;20039;-70
2022/10/29 07:58:38;;;;;;;18.27;6.18;;;14.90;99.90;;;;;;5083470;28;20042;-70
2022/10/29 08:01:04;;;;;;;20.67;6.65;;;15.00;99.90;;;;;;5082926;28;20838;-70
2022/10/29 08:03:30;;;;;;;15.13;5.40;;;15.10;99.90;;;;;;5082186;28;20044;-70
2022/10/29 08:05:58;;;;;;;16.83;6.15;;;15.10;99.90;;;;;;5082740;28;20036;-70
2022/10/29 08:08:24;;;;;;;15.20;6.50;;;15.10;99.90;;;;;;5080590;28;20036;-70
2022/10/29 08:10:50;;;;;;;19.77;5.78;;;15.10;99.90;;;;;;5087002;28;20070;-71
2022/10/29 08:13:15;;;;;;;19.67;7.03;;;15.20;99.90;;;;;;5086430;28;20036;-70
2022/10/29 08:15:45;;;;;;;22.10;6.22;;;15.30;99.90;;;;;;5086704;28;20039;-70
2022/10/29 08:18:14;;;;;;;15.27;6.25;;;15.40;99.90;;;;;;5086128;28;20477;-71
2022/10/29 08:20:40;;;;;;;17.52;6.60;;;15.50;99.90;;;;;;5087284;28;20032;-69
2022/10/29 08:23:06;;;;;;;15.57;6.30;;;15.60;99.90;;;;;;5086013;28;20059;-70
2022/10/29 08:25:31;;;;;;;23.33;5.63;;;15.70;99.90;;;;;;5087456;28;20085;-71
2022/10/29 08:27:58;;;;;;;21.95;6.00;;;15.70;99.90;;;;;;5085715;28;20028;-71
2022/10/29 08:30:24;;;;;;;15.70;6.25;;;15.80;99.90;;;;;;5083520;28;20020;-72
2022/10/29 08:32:49;;;;;;;19.02;5.82;;;15.90;99.90;;;;;;5076867;28;20054;-69
2022/10/29 08:35:15;;;;;;;15.65;5.93;;;16.00;99.90;;;;;;5085837;28;20032;-71
2022/10/29 08:37:44;;;;;;;20.42;6.28;;;16.10;99.90;;;;;;5083597;28;20020;-70
2022/10/29 08:40:49;;;;;;;13.38;5.78;;;16.10;99.90;;;;;;5084157;28;20504;-70
2022/10/29 08:43:35;;;;;;;24.33;6.28;;;16.20;99.90;;;;;;5081591;28;20035;-70
2022/10/29 08:46:01;;;;;;;14.35;5.05;;;16.30;99.90;;;;;;5084353;28;20051;-69
2022/10/29 08:48:33;;;;;;;11.50;5.28;;;16.30;99.90;;;;;;5086008;28;20071;-70
2022/10/29 08:51:19;;;;;;;18.42;6.15;;;16.40;99.90;;;;;;5086150;28;20028;-69
2022/10/29 08:53:53;;;;;;;20.75;5.25;;;16.40;99.90;;;;;;5080838;28;20040;-68
2022/10/29 08:56:24;;;;;;;16.50;5.72;;;16.40;99.90;;;;;;5102789;27;20089;-70
2022/10/29 08:59:32;;;;;;;13.00;6.20;;;16.40;99.90;;;;;;5079284;28;20040;-70
2022/10/29 09:01:57;;;;;;;14.38;5.00;;;16.40;99.90;;;;;;5078673;28;20036;-71
2022/10/29 09:04:27;;;;;;;12.35;5.10;;;16.40;99.90;;;;;;5090336;28;20046;-70
2022/10/29 09:07:12;;;;;;;14.15;5.90;;;16.50;99.90;;;;;;5101335;28;20394;-70
2022/10/29 09:09:49;;;;;;;11.93;5.90;;;16.40;99.90;;;;;;5100853;28;20062;-71
2022/10/29 09:12:24;;;;;;;19.08;5.57;;;16.40;99.90;;;;;;5097711;28;20093;-70
2022/10/29 09:15:25;;;;;;;22.60;5.43;;;16.40;99.90;;;;;;5099373;27;20035;-69
2022/10/29 09:18:26;;;;;;;13.93;5.85;;;16.50;99.90;;;;;;5091784;27;20040;-71
2022/10/29 09:21:04;;;;;;;18.75;5.65;;;16.50;99.90;;;;;;5088564;27;20044;-69
2022/10/29 09:23:35;;;;;;;13.68;4.93;;;16.60;99.90;;;;;;5084412;28;20696;-70
2022/10/29 09:26:10;;;;;;;14.70;5.70;;;16.60;99.90;;;;;;5084676;28;20062;-69
2022/10/29 09:29:20;;;;;;;13.25;5.43;;;16.60;99.90;;;;;;5104706;28;20051;-71
2022/10/29 09:31:52;;;;;;;13.27;4.78;;;16.70;99.90;;;;;;5084116;28;20113;-69
2022/10/29 09:34:43;;;;;;;11.55;4.78;;;16.70;99.90;;;;;;5083261;28;20133;-70
2022/10/29 09:37:48;;;;;;;13.68;5.60;;;16.70;99.90;;;;;;5082240;28;20065;-70
2022/10/29 09:40:34;;;;;;;12.55;4.57;;;16.70;99.90;;;;;;5092001;28;20116;-71
2022/10/29 09:43:14;;;;;;;12.27;4.80;;;16.70;99.90;;;;;;5100408;27;20039;-71
2022/10/29 09:46:10;;;;;;;12.35;5.32;;;16.70;99.90;;;;;;5100182;28;20108;-70
2022/10/29 09:48:48;;;;;;;16.40;5.50;;;16.80;99.90;;;;;;5103896;27;20042;-71
2022/10/29 09:51:19;;;;;;;20.17;5.35;;;16.80;99.90;;;;;;5096965;27;20036;-69
2022/10/29 09:53:45;;;;;;;12.52;4.45;;;16.90;99.90;;;;;;5084481;28;20081;-69
2022/10/29 09:56:11;;;;;;;15.02;5.45;;;16.90;99.90;;;;;;5084521;28;20147;-72
2022/10/29 09:58:41;;;;;;;13.95;5.38;;;16.90;99.90;;;;;;5085777;28;20039;-69
2022/10/29 10:01:06;;;;;;;20.85;4.82;;;16.90;99.90;;;;;;5084075;28;20683;-71
2022/10/29 10:03:44;;;;;;;11.02;5.57;;;17.00;99.90;;;;;;5084096;28;20032;-69
2022/10/29 10:06:12;;;;;;;12.32;5.05;;;17.10;99.90;;;;;;5083036;28;20032;-70
2022/10/29 10:09:03;;;;;;;14.65;5.38;;;17.10;99.90;;;;;;5085256;28;20032;-70
2022/10/29 10:11:41;;;;;;;15.07;5.30;;;17.10;99.90;;;;;;5102203;27;20050;-70
2022/10/29 10:14:19;;;;;;;14.43;6.00;;;17.20;99.90;;;;;;5101434;28;20491;-70
2022/10/29 10:16:45;;;;;;;10.45;4.88;;;17.30;99.90;;;;;;5099507;28;20040;-70
2022/10/29 10:19:26;;;;;;;17.35;4.85;;;17.40;99.90;;;;;;5084390;28;20373;-71
2022/10/29 10:22:00;;;;;;;9.30;4.38;;;17.40;99.90;;;;;;5084077;28;20082;-70
2022/10/29 10:24:32;;;;;;;14.27;4.95;;;17.50;99.90;;;;;;5084844;28;20036;-69
2022/10/29 10:26:59;;;;;;;11.57;4.22;;;17.50;99.90;;;;;;5077647;28;20130;-69
2022/10/29 10:29:25;;;;;;;11.88;5.32;;;17.60;99.90;;;;;;5084882;28;20044;-69
2022/10/29 10:31:54;;;;;;;13.70;5.22;;;17.70;99.90;;;;;;5082071;28;20048;-69
2022/10/29 10:34:33;;;;;;;20.35;5.68;;;17.80;99.90;;;;;;5082373;28;20492;-69
2022/10/29 10:37:04;;;;;;;12.05;5.60;;;17.80;99.90;;;;;;5078976;28;20024;-69
2022/10/29 10:39:53;;;;;;;18.48;5.38;;;17.80;99.90;;;;;;5081361;28;20071;-70
2022/10/29 10:42:38;;;;;;;16.05;4.70;;;17.90;99.90;;;;;;5096932;27;20035;-69
2022/10/29 10:45:28;;;;;;;14.38;5.07;;;17.90;99.90;;;;;;5101197;27;20032;-71
2022/10/29 10:47:57;;;;;;;13.75;4.63;;;18.20;99.90;;;;;;5103274;27;20032;-69
2022/10/29 10:50:28;;;;;;;12.30;4.35;;;18.30;99.90;;;;;;5102719;28;20066;-68
2022/10/29 10:52:56;;;;;;;15.60;4.75;;;18.40;99.90;;;;;;5102444;27;20040;-70
2022/10/29 10:55:36;;;;;;;13.50;3.97;;;18.60;99.90;;;;;;5102484;28;20028;-70
2022/10/29 10:58:22;;;;;;;12.02;3.90;;;18.50;99.90;;;;;;5101356;28;20520;-69
2022/10/29 11:00:56;;;;;;;11.85;3.60;;;18.50;99.90;;;;;;5104377;27;20080;-69
2022/10/29 11:03:33;;;;;;;11.38;4.80;;;18.50;99.90;;;;;;5103418;28;20665;-69
2022/10/29 11:05:59;;;;;;;14.10;3.65;;;18.50;99.90;;;;;;5103240;28;20032;-70
2022/10/29 11:08:31;;;;;;;12.80;3.53;;;18.60;99.90;;;;;;5101540;28;20426;-70
2022/10/29 11:11:06;;;;;;;18.13;5.20;;;18.70;99.90;;;;;;5099439;28;20178;-71
2022/10/29 11:13:33;;;;;;;15.68;3.30;;;18.80;99.90;;;;;;5099870;28;20571;-69
2022/10/29 11:16:26;;;;;;;12.48;3.80;;;18.80;99.90;;;;;;5103887;28;20756;-71
2022/10/29 11:19:15;;;;;;;11.93;3.70;;;18.80;99.90;;;;;;5087271;28;20760;-68
2022/10/29 11:21:43;;;;;;;10.27;3.40;;;18.90;99.90;;;;;;5101834;28;20124;-71
2022/10/29 11:24:16;;;;;;;10.98;3.58;;;18.90;99.90;;;;;;5103159;27;20035;-70
2022/10/29 11:27:00;;;;;;;16.63;4.10;;;18.90;99.90;;;;;;5094724;27;20110;-70
2022/10/29 11:30:02;;;;;;;11.38;3.45;;;18.90;99.90;;;;;;5101208;27;20063;-70
2022/10/29 11:33:06;;;;;;;11.70;3.72;;;18.90;99.90;;;;;;5101656;28;20482;-70
2022/10/29 11:36:04;;;;;;;11.65;3.95;;;18.80;99.90;;;;;;5093874;28;20027;-70
2022/10/29 11:38:39;;;;;;;11.07;3.22;;;18.90;99.90;;;;;;5069222;27;20035;-70
2022/10/29 11:41:17;;;;;;;9.70;3.50;;;18.90;99.90;;;;;;5105202;27;20043;-70
2022/10/29 11:43:43;;;;;;;10.70;3.70;;;18.90;99.90;;;;;;5104354;28;20505;-70
2022/10/29 11:46:17;;;;;;;7.93;3.63;;;18.90;99.90;;;;;;5105641;28;20096;-70
2022/10/29 11:49:13;;;;;;;10.90;3.55;;;18.90;99.90;;;;;;5105371;28;20039;-70
2022/10/29 11:51:50;;;;;;;8.35;2.95;;;19.00;99.90;;;;;;5105082;28;20123;-72
2022/10/29 11:54:41;;;;;;;8.82;3.17;;;19.10;99.90;;;;;;5103887;28;20432;-71
2022/10/29 11:57:27;;;;;;;;;;;19.20;99.90;;;;;;5103479;28;20381;-71
2022/10/29 12:00:08;;;;;;;13.75;4.15;;;19.30;99.90;;;;;;5104675;28;19918;-71
2022/10/29 12:02:51;;;;;;;5.10;2.70;;;19.30;99.90;;;;;;5101570;28;20707;-71
2022/10/29 12:05:47;;;;;;;12.90;4.00;;;19.40;99.90;;;;;;5099558;27;20040;-71
2022/10/29 12:08:34;;;;;;;12.93;2.95;;;19.50;99.90;;;;;;5092231;28;20129;-70
2022/10/29 12:11:02;;;;;;;20.92;4.07;;;19.60;99.90;;;;;;5080033;28;20160;-71
2022/10/29 12:13:35;;;;;;;9.73;3.33;;;19.60;99.90;;;;;;5080100;28;20603;-68
2022/10/29 12:16:32;;;;;;;15.93;3.50;;;19.60;99.90;;;;;;5080272;27;20464;-70
2022/10/29 12:19:01;;;;;;;10.35;2.97;;;19.70;99.90;;;;;;5100545;27;20421;-71
2022/10/29 12:21:46;;;;;;;10.55;2.85;;;19.70;99.90;;;;;;5098518;27;20062;-71
2022/10/29 12:24:27;;;;;;;12.40;2.95;;;19.70;99.90;;;;;;5096128;27;20135;-71
2022/10/29 12:27:16;;;;;;;15.23;3.38;;;19.80;99.90;;;;;;5097456;27;20047;-72
2022/10/29 12:30:01;;;;;;;14.95;3.90;;;19.70;99.90;;;;;;5096350;28;20064;-71
2022/10/29 12:33:06;;;;;;;14.63;3.63;;;19.80;99.90;;;;;;5078068;28;20434;-71
2022/10/29 12:35:42;;;;;;;10.05;3.50;;;19.90;99.90;;;;;;5085287;28;20035;-71
2022/10/29 12:38:38;;;;;;;9.52;2.72;;;19.90;99.90;;;;;;5097170;28;20509;-71
2022/10/29 12:41:28;;;;;;;9.80;2.97;;;19.90;99.90;;;;;;5099324;28;20034;-72
2022/10/29 12:44:06;;;;;;;;;;;19.90;99.90;;;;;;5096892;28;20155;-70
2022/10/29 12:46:38;;;;;;;9.20;2.63;;;19.80;99.90;;;;;;5093776;28;20373;-71
2022/10/29 12:49:15;;;;;;;12.45;2.63;;;19.80;99.90;;;;;;5097297;28;20050;-72
2022/10/29 12:51:56;;;;;;;13.13;3.22;;;19.70;99.90;;;;;;5097905;28;20059;-70
2022/10/29 12:54:36;;;;;;;13.70;3.05;;;19.70;99.90;;;;;;5098766;28;20036;-71
2022/10/29 12:57:04;;;;;;;12.02;2.42;;;19.70;99.90;;;;;;5100162;27;20499;-69
2022/10/29 12:59:33;;;;;;;11.63;2.90;;;19.60;99.90;;;;;;5099957;28;20364;-70
2022/10/29 13:02:35;;;;;;;5.90;2.70;;;19.60;99.90;;;;;;5102008;27;20036;-70